Time;durP1;ratioP1;P1;durP2;ratioP2;P2;SDS_P1;SDS_P2;PMS_P1;PMS_P2;Temp;Humidity;BMP_temperature;BMP_pressure;BME280_temperature;BME280_humidity;BME280_pressure;Samples;Min_cycle;Max_cycle;Signal;HPM_P1;HPM_P2
2022/06/03 00:01:38;;;;;;;5.15;4.07;;;16.10;99.90;;;;;;20996230;28;20075;-81
2022/06/03 00:11:45;;;;;;;7.78;4.18;;;16.00;99.90;;;;;;21010586;28;20406;-79
2022/06/03 00:21:51;;;;;;;6.22;3.58;;;15.90;99.90;;;;;;20994559;28;20025;-81
2022/06/03 00:32:13;;;;;;;5.65;3.60;;;15.60;99.90;;;;;;20982689;28;20043;-81
2022/06/03 00:42:51;;;;;;;4.87;3.87;;;15.60;99.90;;;;;;21004507;28;20046;-81
2022/06/03 00:53:04;;;;;;;7.82;3.95;;;15.70;99.90;;;;;;21016023;28;20395;-82
2022/06/03 01:03:28;;;;;;;5.47;4.30;;;15.20;99.90;;;;;;20988485;28;20583;-77
2022/06/03 01:13:50;;;;;;;8.38;5.03;;;15.40;99.90;;;;;;20987384;28;20075;-81
2022/06/03 01:23:57;;;;;;;5.68;3.90;;;15.40;99.90;;;;;;20989206;28;20089;-78
2022/06/03 01:34:22;;;;;;;6.45;4.32;;;15.50;99.90;;;;;;21026506;28;20556;-82
2022/06/03 01:44:38;;;;;;;5.10;4.03;;;15.40;99.90;;;;;;21008514;28;20059;-81
2022/06/03 01:54:48;;;;;;;8.65;5.47;;;15.40;99.90;;;;;;20989287;28;20059;-81
2022/06/03 02:05:27;;;;;;;8.57;5.47;;;15.30;99.90;;;;;;20922703;28;20064;-79
2022/06/03 02:15:40;;;;;;;10.48;5.38;;;15.10;99.90;;;;;;20903305;28;20071;-80
2022/06/03 02:25:50;;;;;;;8.70;5.32;;;15.20;99.90;;;;;;20910784;28;20029;-79
2022/06/03 02:36:03;;;;;;;11.15;5.85;;;15.40;99.90;;;;;;20922317;22;20048;-73
2022/06/03 02:46:32;;;;;;;10.43;6.95;;;15.10;99.90;;;;;;20920684;28;20057;-73
2022/06/03 02:56:39;;;;;;;10.90;7.32;;;14.60;99.90;;;;;;20919973;28;20588;-73
2022/06/03 03:06:41;;;;;;;10.57;6.88;;;14.40;99.90;;;;;;20919072;28;20029;-72
2022/06/03 03:16:57;;;;;;;11.80;7.20;;;14.40;99.90;;;;;;20918400;28;20029;-73
2022/06/03 03:27:19;;;;;;;6.60;5.30;;;14.50;99.90;;;;;;20917567;28;20037;-73
2022/06/03 03:37:25;;;;;;;7.47;5.73;;;14.50;99.90;;;;;;20899862;28;20098;-73
2022/06/03 03:47:32;;;;;;;6.25;5.03;;;14.30;99.90;;;;;;20897912;28;20033;-72
2022/06/03 03:57:57;;;;;;;6.47;4.10;;;14.40;99.90;;;;;;20896606;28;20033;-73
2022/06/03 04:08:22;;;;;;;9.15;5.90;;;14.50;99.90;;;;;;20912934;28;20033;-73
2022/06/03 04:18:38;;;;;;;10.95;6.10;;;14.60;99.90;;;;;;20912550;28;20028;-72
2022/06/03 04:29:07;;;;;;;6.38;5.28;;;14.60;99.90;;;;;;20908175;28;20028;-72
2022/06/03 04:39:23;;;;;;;5.97;4.88;;;14.70;99.90;;;;;;20910760;28;20044;-73
2022/06/03 04:49:59;;;;;;;9.00;6.40;;;14.80;99.90;;;;;;20910349;28;20504;-73
2022/06/03 05:00:08;;;;;;;8.40;5.57;;;15.00;99.90;;;;;;20889742;28;20044;-73
2022/06/03 05:10:48;;;;;;;8.48;6.05;;;15.30;99.90;;;;;;20908182;28;20033;-74
2022/06/03 05:21:04;;;;;;;8.35;6.30;;;15.80;99.90;;;;;;20890164;28;20129;-74
2022/06/03 05:31:10;;;;;;;10.98;7.05;;;16.00;99.90;;;;;;20908127;28;20032;-74
2022/06/03 05:52:17;;;;;;;10.07;5.70;;;16.40;99.90;;;;;;20905710;28;20105;-74
2022/06/03 06:02:31;;;;;;;8.07;6.00;;;16.80;99.90;;;;;;20892356;28;20043;-73
2022/06/03 06:12:54;;;;;;;8.60;6.47;;;16.80;99.90;;;;;;20878130;28;20440;-73
2022/06/03 06:23:09;;;;;;;11.20;6.55;;;16.80;99.90;;;;;;20903038;28;20509;-74
2022/06/03 06:33:29;;;;;;;7.55;6.07;;;17.20;99.90;;;;;;20901061;28;20033;-73
2022/06/03 06:44:02;;;;;;;6.20;5.28;;;17.70;99.90;;;;;;20920900;28;20059;-73
2022/06/03 06:54:39;;;;;;;9.68;5.85;;;18.20;99.90;;;;;;20907222;28;20059;-74
2022/06/03 07:04:53;;;;;;;8.68;5.22;;;18.90;99.90;;;;;;20919417;28;20037;-73
2022/06/03 07:15:10;;;;;;;9.32;5.57;;;18.40;99.90;;;;;;20919561;28;20029;-73
2022/06/03 07:25:15;;;;;;;9.30;5.50;;;18.60;99.90;;;;;;20898789;28;20033;-73
2022/06/03 07:35:33;;;;;;;9.70;5.47;;;19.20;99.90;;;;;;20900470;28;20499;-74
2022/06/03 07:45:49;;;;;;;10.15;5.85;;;19.50;99.90;;;;;;20916241;28;20037;-74
2022/06/03 07:55:57;;;;;;;6.25;5.63;;;20.20;99.90;;;;;;20915427;28;20083;-74
2022/06/03 08:06:00;;;;;;;6.60;4.93;;;20.60;99.90;;;;;;20914534;28;20501;-73
2022/06/03 08:16:05;;;;;;;7.28;5.85;;;21.30;99.90;;;;;;20913928;28;20426;-74
2022/06/03 08:26:13;;;;;;;7.50;4.70;;;21.50;99.90;;;;;;20903353;28;20037;-74
2022/06/03 08:36:18;;;;;;;8.02;5.00;;;21.30;99.90;;;;;;20869406;22;20053;-81
2022/06/03 08:46:34;;;;;;;10.68;5.85;;;22.10;99.90;;;;;;20863876;28;20041;-80
2022/06/03 08:56:39;;;;;;;5.97;4.03;;;22.30;99.90;;;;;;20877828;28;20790;-79
2022/06/03 09:06:51;;;;;;;7.00;4.65;;;23.30;99.90;;;;;;20828858;28;20056;-80
2022/06/03 09:16:58;;;;;;;23.98;5.45;;;24.60;99.90;;;;;;20822170;28;20563;-80
2022/06/03 09:27:02;;;;;;;6.00;3.70;;;24.70;99.90;;;;;;20777935;28;20064;-79
2022/06/03 09:37:04;;;;;;;5.18;2.92;;;25.20;99.90;;;;;;20769150;28;20036;-80
2022/06/03 09:47:08;;;;;;;6.55;3.40;;;27.20;99.90;;;;;;20823082;28;20395;-78
2022/06/03 09:57:27;;;;;;;9.13;3.33;;;27.30;99.90;;;;;;20826559;28;20120;-80
2022/06/03 10:07:28;;;;;;;6.53;2.75;;;27.30;99.90;;;;;;20816543;28;20124;-79
2022/06/03 10:17:31;;;;;;;4.60;2.90;;;29.00;99.90;;;;;;20805928;28;20885;-79
2022/06/03 10:27:32;;;;;;;4.32;2.90;;;28.00;99.90;;;;;;20803315;28;20029;-80
2022/06/03 10:37:34;;;;;;;5.80;3.47;;;28.30;99.90;;;;;;20794519;28;20041;-78
2022/06/03 10:47:38;;;;;;;6.28;3.55;;;26.30;99.90;;;;;;20779111;28;20045;-80
2022/06/03 11:08:13;;;;;;;10.60;5.43;;;23.50;99.90;;;;;;20794315;28;20064;-80
2022/06/03 11:18:16;;;;;;;11.13;5.18;;;23.40;99.90;;;;;;20801848;28;20405;-79
2022/06/03 11:28:29;;;;;;;14.38;6.43;;;23.10;99.90;;;;;;20777215;28;20036;-78
2022/06/03 11:38:44;;;;;;;10.05;5.20;;;22.40;99.90;;;;;;20739467;28;20054;-78
2022/06/03 11:48:46;;;;;;;18.23;7.05;;;21.80;99.90;;;;;;20757053;28;20037;-78
2022/06/03 11:59:12;;;;;;;14.43;6.63;;;21.20;99.90;;;;;;20845496;28;20033;-78
2022/06/03 12:09:33;;;;;;;8.55;5.60;;;20.80;99.90;;;;;;20895070;28;20032;-78
2022/06/03 12:19:50;;;;;;;10.40;6.40;;;21.20;99.90;;;;;;20895396;28;20082;-77
2022/06/03 12:30:12;;;;;;;11.95;7.20;;;20.90;99.90;;;;;;20838957;28;20037;-77
2022/06/03 12:40:25;;;;;;;18.20;9.50;;;20.10;99.90;;;;;;20810632;28;20038;-76
2022/06/03 12:50:35;;;;;;;14.00;8.57;;;20.20;99.90;;;;;;20814167;28;20037;-77
2022/06/03 13:00:51;;;;;;;13.35;8.13;;;20.20;99.90;;;;;;20884141;28;20033;-78
2022/06/03 13:10:55;;;;;;;19.08;9.50;;;20.10;99.90;;;;;;20899383;28;20048;-80
2022/06/03 13:21:02;;;;;;;10.77;8.95;;;20.20;99.90;;;;;;20907310;28;20033;-77
2022/06/03 13:31:12;;;;;;;17.92;9.93;;;20.40;99.90;;;;;;20818105;28;20052;-78
2022/06/03 13:51:53;;;;;;;7.50;4.20;;;20.10;99.90;;;;;;20740594;28;20625;-80
2022/06/03 14:01:54;;;;;;;8.98;4.95;;;20.30;99.90;;;;;;20747710;28;20117;-77
2022/06/03 14:11:57;;;;;;;;;;;20.40;99.90;;;;;;20737356;28;20033;-76
2022/06/03 14:22:03;;;;;;;5.90;5.07;;;20.10;99.90;;;;;;20803221;28;19921;-76
2022/06/03 14:32:09;;;;;;;6.38;4.22;;;20.50;99.90;;;;;;20844648;22;20041;-74
2022/06/03 14:42:16;;;;;;;10.07;5.22;;;20.60;99.90;;;;;;20812784;28;20045;-74
2022/06/03 14:52:25;;;;;;;5.95;4.88;;;20.60;99.90;;;;;;20818656;28;20037;-72
2022/06/03 15:02:46;;;;;;;11.00;5.93;;;20.40;99.90;;;;;;20816658;28;20040;-73
2022/06/03 15:12:59;;;;;;;8.50;5.43;;;20.20;99.90;;;;;;20817285;28;20048;-72
2022/06/03 15:23:03;;;;;;;8.85;5.78;;;20.30;99.90;;;;;;20856831;28;20029;-73
2022/06/03 15:33:25;;;;;;;6.45;4.05;;;20.00;99.90;;;;;;20814378;28;20462;-73
2022/06/03 15:43:28;;;;;;;;;;;21.30;99.90;;;;;;20814529;28;20562;-73
2022/06/03 15:53:32;;;;;;;5.70;3.43;;;21.20;99.90;;;;;;20815283;28;20003;-72
2022/06/03 16:03:39;;;;;;;10.85;4.88;;;21.40;99.90;;;;;;20813483;28;20091;-73
2022/06/03 16:13:40;;;;;;;6.28;4.43;;;21.20;99.90;;;;;;20811963;28;20041;-73
2022/06/03 16:23:47;;;;;;;5.37;4.20;;;21.30;99.90;;;;;;20853895;28;20513;-73
2022/06/03 16:34:04;;;;;;;5.50;4.25;;;22.30;99.90;;;;;;20809533;28;20044;-72
2022/06/03 16:44:32;;;;;;;6.90;4.35;;;21.90;99.90;;;;;;20821654;28;20671;-72
2022/06/03 16:54:37;;;;;;;9.07;4.45;;;22.00;99.90;;;;;;20806632;28;20037;-73
2022/06/03 17:04:43;;;;;;;7.32;4.20;;;21.30;99.90;;;;;;20808144;28;20044;-73
2022/06/03 17:14:49;;;;;;;9.93;4.13;;;21.60;99.90;;;;;;20808655;28;20137;-72
2022/06/03 17:25:07;;;;;;;5.07;3.58;;;21.70;99.90;;;;;;20847252;28;20108;-72
2022/06/03 17:35:33;;;;;;;6.57;3.30;;;21.70;99.90;;;;;;20808816;28;20499;-73
2022/06/03 17:45:43;;;;;;;8.77;3.20;;;22.00;99.90;;;;;;20821150;28;20040;-73
2022/06/03 17:56:22;;;;;;;3.50;1.98;;;22.10;99.90;;;;;;20823540;28;20395;-74
2022/06/03 18:06:35;;;;;;;6.72;2.72;;;23.10;99.90;;;;;;20805528;28;20504;-73
2022/06/03 18:16:40;;;;;;;3.10;2.30;;;24.40;99.90;;;;;;20818859;28;20120;-73
2022/06/03 18:27:08;;;;;;;5.85;3.00;;;23.50;99.90;;;;;;20837543;28;20029;-73
2022/06/03 18:37:30;;;;;;;7.13;4.20;;;22.50;99.90;;;;;;20836601;28;20083;-72
2022/06/03 18:48:11;;;;;;;5.20;3.47;;;21.20;99.90;;;;;;20837900;28;20112;-73
2022/06/03 18:58:35;;;;;;;4.32;3.33;;;20.10;99.90;;;;;;20835580;28;20359;-73
2022/06/03 19:08:57;;;;;;;5.28;3.78;;;19.60;99.90;;;;;;20833913;28;20483;-72
2022/06/03 19:19:17;;;;;;;;;;;19.20;99.90;;;;;;20833837;28;20039;-73
2022/06/03 19:29:23;;;;;;;10.70;4.13;;;18.80;99.90;;;;;;20832658;28;19913;-73
2022/06/03 19:39:28;;;;;;;4.90;3.78;;;18.50;99.90;;;;;;20832304;28;20029;-73
2022/06/03 19:49:37;;;;;;;6.47;4.38;;;18.30;99.90;;;;;;20835563;28;20029;-72
2022/06/03 19:59:46;;;;;;;8.88;4.38;;;18.30;99.90;;;;;;20835359;28;20107;-73
2022/06/03 20:10:09;;;;;;;9.80;4.90;;;18.10;99.90;;;;;;20836699;28;20026;-74
2022/06/03 20:20:10;;;;;;;12.32;4.28;;;17.80;99.90;;;;;;20833640;28;20040;-74
2022/06/03 20:30:32;;;;;;;7.30;4.40;;;17.80;99.90;;;;;;20828825;28;20057;-73
2022/06/03 20:40:46;;;;;;;6.57;4.17;;;17.60;99.90;;;;;;20828517;23;20420;-76
2022/06/03 20:51:08;;;;;;;8.48;4.90;;;17.40;99.90;;;;;;20783793;28;20084;-77
2022/06/03 21:01:10;;;;;;;;;;;17.20;99.90;;;;;;20794459;28;20156;-75
2022/06/03 21:22:01;;;;;;;10.80;5.40;;;16.90;99.90;;;;;;20789597;28;20520;-78
2022/06/03 21:32:31;;;;;;;7.70;5.05;;;16.90;99.90;;;;;;20797928;28;20500;-77
2022/06/03 21:43:02;;;;;;;5.82;4.10;;;16.90;99.90;;;;;;20771517;28;20037;-77
2022/06/03 21:53:29;;;;;;;8.77;4.65;;;16.90;99.90;;;;;;20790261;28;20030;-75
2022/06/03 22:03:33;;;;;;;10.10;4.75;;;16.70;99.90;;;;;;20802579;28;20037;-77
2022/06/03 22:13:34;;;;;;;6.43;4.95;;;16.80;99.90;;;;;;20746508;28;20033;-77
2022/06/03 22:23:36;;;;;;;5.53;4.57;;;16.80;99.90;;;;;;20746983;28;20029;-77
2022/06/03 22:33:46;;;;;;;6.75;4.40;;;16.70;99.90;;;;;;20742324;28;20103;-77
2022/06/03 22:44:07;;;;;;;7.63;4.72;;;16.70;99.90;;;;;;20741975;28;20120;-78
2022/06/03 22:54:08;;;;;;;6.75;3.95;;;16.70;99.90;;;;;;20749229;28;20553;-77
2022/06/03 23:04:08;;;;;;;6.87;4.60;;;16.60;99.90;;;;;;20754936;28;20084;-74
2022/06/03 23:14:10;;;;;;;5.27;4.00;;;16.50;99.90;;;;;;20773777;28;20029;-76
2022/06/03 23:24:11;;;;;;;4.88;3.80;;;16.40;99.90;;;;;;20829429;28;20048;-77
2022/06/03 23:34:12;;;;;;;5.67;3.87;;;16.40;99.90;;;;;;20834458;28;20037;-76
2022/06/03 23:54:33;;;;;;;6.55;4.13;;;16.20;99.90;;;;;;20833995;28;20539;-76
